Time;durP1;ratioP1;P1;durP2;ratioP2;P2;SDS_P1;SDS_P2;PMS_P1;PMS_P2;Temp;Humidity;BMP_temperature;BMP_pressure;BME280_temperature;BME280_humidity;BME280_pressure;Samples;Min_cycle;Max_cycle;Signal;HPM_P1;HPM_P2
2022/01/14 00:00:05;;;;;;;0.00;0.00;;;5.50;99.90;;;;;;5021179;28;20049;-59
2022/01/14 00:02:31;;;;;;;0.00;0.00;;;5.50;99.90;;;;;;5019349;28;20045;-59
2022/01/14 00:04:57;;;;;;;0.00;0.00;;;5.50;99.90;;;;;;5021238;28;20045;-59
2022/01/14 00:07:25;;;;;;;0.03;0.03;;;5.40;99.90;;;;;;5020413;28;20524;-59
2022/01/14 00:09:50;;;;;;;0.00;0.00;;;5.50;99.90;;;;;;5021500;28;20049;-59
2022/01/14 00:12:23;;;;;;;0.05;0.05;;;5.50;99.90;;;;;;5020509;28;20512;-59
2022/01/14 00:15:02;;;;;;;0.00;0.00;;;5.50;99.90;;;;;;5020402;28;20061;-59
2022/01/14 00:17:28;;;;;;;0.00;0.00;;;5.50;99.90;;;;;;5021041;28;20045;-59
2022/01/14 00:19:54;;;;;;;0.22;0.15;;;5.50;99.90;;;;;;5020877;28;20049;-59
2022/01/14 00:22:20;;;;;;;0.00;0.00;;;5.50;99.90;;;;;;5020047;28;20049;-58
2022/01/14 00:35:20;;;;;;;0.00;0.00;;;5.40;99.90;;;;;;5019649;28;20049;-61
2022/01/14 00:37:45;;;;;;;0.00;0.00;;;6.60;99.90;;;;;;5020222;28;20738;-60
2022/01/14 00:40:12;;;;;;;7.22;0.55;;;5.50;99.90;;;;;;5020307;28;20087;-59
2022/01/14 00:42:37;;;;;;;0.00;0.00;;;5.50;99.90;;;;;;5020448;28;20037;-59
2022/01/14 00:45:07;;;;;;;0.00;0.00;;;5.40;99.90;;;;;;5020132;28;20033;-59
2022/01/14 00:47:37;;;;;;;0.00;0.00;;;5.40;99.90;;;;;;5020456;28;20463;-59
2022/01/14 00:50:14;;;;;;;0.00;0.00;;;5.40;99.90;;;;;;5001797;28;20057;-60
2022/01/14 00:52:42;;;;;;;1.08;1.08;;;5.40;99.90;;;;;;5020537;28;20392;-59
2022/01/14 00:55:12;;;;;;;0.00;0.00;;;5.40;99.90;;;;;;5020090;28;20049;-59
2022/01/14 01:00:22;;;;;;;0.00;0.00;;;5.40;99.90;;;;;;5020386;28;20148;-59
2022/01/14 01:02:47;;;;;;;1.35;1.17;;;5.50;99.90;;;;;;5001607;28;20400;-59
2022/01/14 01:05:14;;;;;;;0.00;0.00;;;5.60;99.90;;;;;;5019203;28;20037;-59
2022/01/14 01:07:42;;;;;;;0.00;0.00;;;5.50;99.90;;;;;;5020235;28;20072;-59
2022/01/14 01:10:10;;;;;;;0.00;0.00;;;5.50;99.90;;;;;;5019918;28;20045;-59
2022/01/14 01:12:47;;;;;;;0.00;0.00;;;5.50;99.90;;;;;;5019271;28;20041;-59
2022/01/14 01:15:15;;;;;;;0.00;0.00;;;5.50;99.90;;;;;;5020054;28;20061;-60
2022/01/14 01:17:41;;;;;;;0.00;0.00;;;5.50;99.90;;;;;;5020072;28;20120;-59
2022/01/14 01:20:18;;;;;;;0.10;0.10;;;5.50;99.90;;;;;;5018427;28;20507;-59
2022/01/14 01:22:46;;;;;;;2.20;2.00;;;5.50;99.90;;;;;;5019867;28;20519;-59
2022/01/14 01:25:13;;;;;;;0.00;0.00;;;5.50;99.90;;;;;;5020239;28;20045;-59
2022/01/14 01:27:41;;;;;;;0.00;0.00;;;5.50;99.90;;;;;;5021311;28;20041;-59
2022/01/14 01:30:27;;;;;;;0.10;0.10;;;5.50;99.90;;;;;;5028080;28;20050;-60
2022/01/14 01:32:53;;;;;;;0.00;0.00;;;5.50;99.90;;;;;;5019593;28;20413;-58
2022/01/14 01:35:20;;;;;;;0.00;0.00;;;5.50;99.90;;;;;;5001008;28;20053;-59
2022/01/14 01:37:45;;;;;;;1.35;1.00;;;5.50;99.90;;;;;;5019613;28;20047;-59
2022/01/14 01:40:14;;;;;;;0.00;0.00;;;5.50;99.90;;;;;;5019768;28;20697;-59
2022/01/14 01:42:41;;;;;;;0.30;0.30;;;5.50;99.90;;;;;;5019114;28;20095;-59
2022/01/14 01:45:10;;;;;;;0.00;0.00;;;5.50;99.90;;;;;;5018472;28;20107;-59
2022/01/14 01:47:37;;;;;;;0.00;0.00;;;5.50;99.90;;;;;;5019499;28;20057;-59
2022/01/14 01:50:15;;;;;;;0.00;0.00;;;5.50;99.90;;;;;;5018133;28;20049;-60
2022/01/14 01:52:41;;;;;;;0.00;0.00;;;5.50;99.90;;;;;;5019412;28;20041;-59
2022/01/14 01:55:08;;;;;;;0.00;0.00;;;5.50;99.90;;;;;;5019437;28;20144;-58
2022/01/14 01:57:33;;;;;;;0.00;0.00;;;5.40;99.90;;;;;;5019248;28;20033;-59
2022/01/14 01:59:59;;;;;;;0.10;0.10;;;5.40;99.90;;;;;;5001460;28;20068;-58
2022/01/14 02:02:26;;;;;;;0.00;0.00;;;5.40;99.90;;;;;;5019452;28;20046;-59
2022/01/14 02:04:51;;;;;;;0.00;0.00;;;5.50;99.90;;;;;;5018899;28;20195;-59
2022/01/14 02:07:17;;;;;;;0.00;0.00;;;5.40;99.90;;;;;;5018717;28;20088;-59
2022/01/14 02:09:43;;;;;;;0.00;0.00;;;5.40;99.90;;;;;;5017150;28;20128;-59
2022/01/14 02:12:11;;;;;;;0.10;0.10;;;5.40;99.90;;;;;;5019040;28;20041;-59
2022/01/14 02:19:44;;;;;;;0.00;0.00;;;5.40;99.90;;;;;;5019402;28;20050;-59
2022/01/14 02:27:04;;;;;;;0.00;0.00;;;5.40;99.90;;;;;;5021536;28;20492;-59
2022/01/14 02:29:30;;;;;;;0.00;0.00;;;5.40;99.90;;;;;;5021020;28;20052;-59
2022/01/14 02:31:56;;;;;;;0.05;0.05;;;5.70;99.90;;;;;;5022851;28;21046;-58
2022/01/14 02:34:23;;;;;;;0.00;0.00;;;5.40;99.90;;;;;;5022463;28;20068;-59
2022/01/14 02:36:49;;;;;;;0.00;0.00;;;5.40;99.90;;;;;;5021972;28;20076;-59
2022/01/14 02:39:17;;;;;;;0.00;0.00;;;5.40;99.90;;;;;;5022617;28;20037;-59
2022/01/14 02:41:45;;;;;;;0.00;0.00;;;5.40;99.90;;;;;;5005367;28;20093;-59
2022/01/14 02:44:18;;;;;;;0.00;0.00;;;5.40;99.90;;;;;;5022336;28;20045;-59
2022/01/14 02:46:52;;;;;;;0.00;0.00;;;5.40;99.90;;;;;;5022627;28;20042;-59
2022/01/14 02:49:18;;;;;;;0.10;0.10;;;5.30;99.90;;;;;;5005023;28;20112;-59
2022/01/14 02:51:44;;;;;;;0.17;0.17;;;5.30;99.90;;;;;;5021406;28;20124;-59
2022/01/14 02:54:16;;;;;;;0.00;0.00;;;5.30;99.90;;;;;;5022328;28;20121;-59
2022/01/14 02:56:43;;;;;;;0.00;0.00;;;5.30;99.90;;;;;;5004223;28;20060;-59
2022/01/14 02:59:10;;;;;;;0.00;0.00;;;5.30;99.90;;;;;;5021712;28;20073;-59
2022/01/14 03:01:36;;;;;;;0.20;0.20;;;5.30;99.90;;;;;;5022426;28;20499;-59
2022/01/14 03:04:03;;;;;;;0.00;0.00;;;5.40;99.90;;;;;;5022898;28;20099;-59
2022/01/14 03:06:29;;;;;;;0.10;0.10;;;5.30;99.90;;;;;;5021769;28;20053;-58
2022/01/14 03:08:57;;;;;;;0.00;0.00;;;5.40;99.90;;;;;;5021569;28;20099;-59
2022/01/14 03:11:37;;;;;;;0.20;0.20;;;5.40;99.90;;;;;;5022323;28;20119;-59
2022/01/14 03:14:04;;;;;;;0.00;0.00;;;5.50;99.90;;;;;;5021591;28;20080;-60
2022/01/14 03:16:37;;;;;;;0.00;0.00;;;5.50;99.90;;;;;;5021984;28;20081;-59
2022/01/14 03:19:07;;;;;;;0.00;0.00;;;5.50;99.90;;;;;;5021789;28;20033;-60
2022/01/14 03:21:39;;;;;;;0.00;0.00;;;5.50;99.90;;;;;;5021321;28;20121;-58
2022/01/14 03:24:17;;;;;;;0.00;0.00;;;5.50;99.90;;;;;;5020768;28;20077;-60
2022/01/14 03:26:45;;;;;;;0.00;0.00;;;5.50;99.90;;;;;;5021776;28;20045;-59
2022/01/14 03:29:13;;;;;;;0.00;0.00;;;5.40;99.90;;;;;;5032957;28;20464;-59
2022/01/14 03:31:39;;;;;;;0.00;0.00;;;5.40;99.90;;;;;;5020880;28;20045;-59
2022/01/14 03:34:05;;;;;;;0.00;0.00;;;5.40;99.90;;;;;;5021223;28;20087;-59
2022/01/14 03:36:30;;;;;;;0.00;0.00;;;5.40;99.90;;;;;;5021595;28;20081;-59
2022/01/14 03:38:56;;;;;;;0.00;0.00;;;5.40;99.90;;;;;;5003615;28;20100;-59
2022/01/14 03:41:21;;;;;;;0.00;0.00;;;5.50;99.90;;;;;;5021036;28;20100;-59
2022/01/14 03:43:47;;;;;;;0.00;0.00;;;5.40;99.90;;;;;;5021690;28;20091;-59
2022/01/14 03:46:13;;;;;;;0.00;0.00;;;5.50;99.90;;;;;;5021500;28;20049;-59
2022/01/14 03:48:38;;;;;;;0.00;0.00;;;5.40;99.90;;;;;;5021743;28;20117;-58
2022/01/14 03:51:04;;;;;;;0.00;0.00;;;5.50;99.90;;;;;;5020074;28;20045;-59
2022/01/14 03:53:30;;;;;;;0.00;0.00;;;5.50;99.90;;;;;;5021548;28;20112;-59
2022/01/14 03:55:56;;;;;;;0.00;0.00;;;5.40;99.90;;;;;;5021334;28;20079;-58
2022/01/14 03:58:22;;;;;;;0.00;0.00;;;5.50;99.90;;;;;;5021577;28;20121;-59
2022/01/14 04:00:47;;;;;;;0.00;0.00;;;5.50;99.90;;;;;;5002643;28;20392;-59
2022/01/14 04:03:14;;;;;;;0.00;0.00;;;5.50;99.90;;;;;;5003473;28;20041;-59
2022/01/14 04:05:40;;;;;;;0.00;0.00;;;5.50;99.90;;;;;;5020641;28;20042;-59
2022/01/14 04:08:06;;;;;;;0.00;0.00;;;5.50;99.90;;;;;;5020830;28;20449;-59
2022/01/14 04:10:32;;;;;;;0.00;0.00;;;5.50;99.90;;;;;;5020764;28;20849;-59
2022/01/14 04:13:05;;;;;;;0.00;0.00;;;5.60;99.90;;;;;;5021457;28;20037;-59
2022/01/14 04:15:42;;;;;;;0.00;0.00;;;5.50;99.90;;;;;;5021359;28;20045;-59
2022/01/14 04:18:19;;;;;;;0.00;0.00;;;5.50;99.90;;;;;;5003170;28;20115;-60
2022/01/14 04:20:48;;;;;;;0.08;0.08;;;5.60;99.90;;;;;;5020168;28;20042;-59
2022/01/14 04:23:17;;;;;;;0.10;0.10;;;5.50;99.90;;;;;;5020377;28;20061;-59
2022/01/14 04:25:44;;;;;;;0.10;0.10;;;5.60;99.90;;;;;;5020359;28;20129;-59
2022/01/14 04:28:11;;;;;;;0.05;0.05;;;5.50;99.90;;;;;;5024568;28;20072;-59
2022/01/14 04:30:37;;;;;;;0.00;0.00;;;5.50;99.90;;;;;;5027940;28;20464;-59
2022/01/14 04:33:03;;;;;;;0.13;0.13;;;5.50;99.90;;;;;;5020315;28;20113;-59
2022/01/14 04:35:30;;;;;;;0.38;0.38;;;5.50;99.90;;;;;;5019870;28;20045;-59
2022/01/14 04:37:56;;;;;;;0.10;0.10;;;5.50;99.90;;;;;;5020618;28;20053;-58
2022/01/14 04:40:22;;;;;;;0.00;0.00;;;5.40;99.90;;;;;;5020736;28;20603;-59
2022/01/14 04:42:48;;;;;;;0.00;0.00;;;5.40;99.90;;;;;;5019627;28;20488;-62
2022/01/14 04:45:27;;;;;;;0.00;0.00;;;5.40;99.90;;;;;;5019594;28;20051;-59
2022/01/14 04:47:53;;;;;;;0.00;0.00;;;5.30;99.90;;;;;;5020278;28;20057;-59
2022/01/14 04:50:20;;;;;;;0.00;0.00;;;5.30;99.90;;;;;;5018849;28;20049;-59
2022/01/14 04:52:47;;;;;;;0.40;0.22;;;5.30;99.90;;;;;;5020388;28;20106;-59
2022/01/14 04:55:15;;;;;;;0.00;0.00;;;5.30;99.90;;;;;;5020580;28;20117;-59
2022/01/14 04:57:42;;;;;;;0.00;0.00;;;5.30;99.90;;;;;;5020426;28;20117;-60
2022/01/14 05:00:11;;;;;;;0.17;0.17;;;6.10;99.90;;;;;;5019727;28;20451;-59
2022/01/14 05:02:37;;;;;;;0.00;0.00;;;5.30;99.90;;;;;;5019960;28;20049;-59
2022/01/14 05:05:07;;;;;;;0.00;0.00;;;5.40;99.90;;;;;;5019571;28;20110;-60
2022/01/14 05:07:33;;;;;;;0.28;0.28;;;5.30;99.90;;;;;;5019767;28;20125;-59
2022/01/14 05:12:27;;;;;;;0.20;0.20;;;5.30;99.90;;;;;;5019936;28;20056;-59
2022/01/14 05:14:53;;;;;;;0.10;0.10;;;5.30;99.90;;;;;;5019658;28;20041;-59
2022/01/14 05:17:18;;;;;;;0.00;0.00;;;5.30;99.90;;;;;;5019351;28;20037;-59
2022/01/14 05:19:44;;;;;;;0.00;0.00;;;5.30;99.90;;;;;;5001267;28;20472;-59
2022/01/14 05:22:10;;;;;;;0.00;0.00;;;5.30;99.90;;;;;;5020121;28;21090;-59
2022/01/14 05:24:35;;;;;;;1.17;0.88;;;5.30;99.90;;;;;;5020005;28;20124;-59
2022/01/14 05:27:01;;;;;;;0.00;0.00;;;5.30;99.90;;;;;;5019152;28;20041;-59
2022/01/14 05:29:27;;;;;;;0.00;0.00;;;5.30;99.90;;;;;;5027476;28;20566;-59
2022/01/14 05:32:01;;;;;;;0.00;0.00;;;5.40;99.90;;;;;;5039672;28;20577;-59
2022/01/14 05:34:27;;;;;;;0.00;0.00;;;5.30;99.90;;;;;;5038161;28;20099;-60
2022/01/14 05:36:52;;;;;;;0.00;0.00;;;5.30;99.90;;;;;;5039547;28;20080;-59
2022/01/14 05:39:20;;;;;;;0.00;0.00;;;6.70;99.90;;;;;;5039383;28;20630;-59
2022/01/14 05:41:46;;;;;;;0.00;0.00;;;5.40;99.90;;;;;;5039539;28;20124;-59
2022/01/14 05:44:12;;;;;;;0.00;0.00;;;5.40;99.90;;;;;;5038879;28;20170;-59
2022/01/14 05:46:38;;;;;;;0.00;0.00;;;5.40;99.90;;;;;;5039354;28;20393;-59
2022/01/14 05:49:03;;;;;;;0.00;0.00;;;5.50;99.90;;;;;;5039190;28;20111;-59
2022/01/14 05:51:29;;;;;;;0.25;0.25;;;5.50;99.90;;;;;;5039120;28;20056;-59
2022/01/14 05:53:55;;;;;;;0.00;0.00;;;5.50;99.90;;;;;;5020590;28;20346;-59
2022/01/14 05:56:21;;;;;;;2.63;1.27;;;5.50;99.90;;;;;;5041542;28;20530;-59
2022/01/14 05:58:47;;;;;;;0.00;0.00;;;5.60;99.90;;;;;;5045937;28;20049;-59
2022/01/14 06:01:13;;;;;;;0.00;0.00;;;5.60;99.90;;;;;;5045995;28;20044;-59
2022/01/14 06:03:38;;;;;;;0.00;0.00;;;5.60;99.90;;;;;;5045295;28;20712;-58
2022/01/14 06:06:04;;;;;;;1.13;1.13;;;5.70;99.90;;;;;;5045178;28;20734;-59
2022/01/14 06:08:30;;;;;;;0.00;0.00;;;5.70;99.90;;;;;;5028297;28;20081;-59
2022/01/14 06:10:56;;;;;;;0.00;0.00;;;5.70;99.90;;;;;;5045443;28;20037;-59
2022/01/14 06:13:22;;;;;;;0.00;0.00;;;5.70;99.90;;;;;;5044902;28;20064;-59
2022/01/14 06:15:47;;;;;;;0.00;0.00;;;5.70;99.90;;;;;;5045620;28;20053;-59
2022/01/14 06:18:13;;;;;;;0.00;0.00;;;5.70;99.90;;;;;;5045901;28;20052;-59
2022/01/14 06:20:39;;;;;;;0.00;0.00;;;5.70;99.90;;;;;;5045321;28;20664;-59
2022/01/14 06:23:04;;;;;;;0.00;0.00;;;5.70;99.90;;;;;;5044553;28;20041;-59
2022/01/14 06:25:30;;;;;;;0.00;0.00;;;5.70;99.90;;;;;;5045998;28;20044;-58
2022/01/14 06:27:56;;;;;;;0.00;0.00;;;5.60;99.90;;;;;;5039438;28;20057;-59
2022/01/14 06:30:21;;;;;;;0.00;0.00;;;5.60;99.90;;;;;;5034348;28;20045;-59
2022/01/14 06:32:51;;;;;;;0.00;0.00;;;5.60;99.90;;;;;;5006981;28;20132;-59
2022/01/14 06:35:17;;;;;;;0.00;0.00;;;5.60;99.90;;;;;;5024926;28;20037;-59
2022/01/14 06:37:42;;;;;;;0.00;0.00;;;5.50;99.90;;;;;;5025906;28;20048;-59
2022/01/14 06:40:09;;;;;;;0.38;0.30;;;6.40;99.90;;;;;;5023595;28;20053;-59
2022/01/14 06:42:35;;;;;;;0.00;0.00;;;5.60;99.90;;;;;;5025654;28;20047;-59
2022/01/14 06:45:02;;;;;;;0.00;0.00;;;5.50;99.90;;;;;;5025716;28;20083;-59
2022/01/14 06:47:27;;;;;;;0.00;0.00;;;5.50;99.90;;;;;;5008514;28;20052;-59
2022/01/14 06:49:53;;;;;;;0.00;0.00;;;5.50;99.90;;;;;;5023746;28;20607;-59
2022/01/14 06:52:19;;;;;;;0.00;0.00;;;5.50;99.90;;;;;;5025432;28;20124;-59
2022/01/14 06:54:45;;;;;;;0.00;0.00;;;5.40;99.90;;;;;;5025198;28;20052;-59
2022/01/14 06:57:10;;;;;;;0.00;0.00;;;5.40;99.90;;;;;;5025062;28;20045;-59
2022/01/14 06:59:36;;;;;;;0.00;0.00;;;5.50;99.90;;;;;;5025058;28;20044;-59
2022/01/14 07:02:02;;;;;;;0.00;0.00;;;5.60;99.90;;;;;;5025900;28;20386;-59
2022/01/14 07:04:28;;;;;;;0.13;0.13;;;5.40;99.90;;;;;;5025073;28;20040;-59
2022/01/14 07:06:54;;;;;;;0.00;0.00;;;5.50;99.90;;;;;;5025016;28;20049;-59
2022/01/14 07:09:20;;;;;;;0.00;0.00;;;5.50;99.90;;;;;;5003419;28;20056;-58
2022/01/14 07:11:52;;;;;;;0.10;0.10;;;5.50;99.90;;;;;;5021649;28;20057;-59
2022/01/14 07:14:18;;;;;;;0.00;0.00;;;5.50;99.90;;;;;;5021944;28;20103;-59
2022/01/14 07:16:44;;;;;;;0.00;0.00;;;5.50;99.90;;;;;;5004316;28;20049;-59
2022/01/14 07:19:09;;;;;;;0.00;0.00;;;5.50;99.90;;;;;;5012204;28;20063;-60
2022/01/14 07:21:35;;;;;;;0.00;0.00;;;5.50;99.90;;;;;;5045239;28;20044;-59
2022/01/14 07:24:02;;;;;;;0.00;0.00;;;5.50;99.90;;;;;;5025017;28;20049;-60
2022/01/14 07:26:28;;;;;;;0.00;0.00;;;5.50;99.90;;;;;;5042279;28;20064;-59
2022/01/14 07:28:53;;;;;;;0.08;0.08;;;5.50;99.90;;;;;;5034540;28;20037;-59
2022/01/14 07:31:19;;;;;;;0.00;0.00;;;5.50;99.90;;;;;;5020608;28;20053;-59
2022/01/14 07:33:45;;;;;;;0.00;0.00;;;5.60;99.90;;;;;;5004155;28;20556;-59
2022/01/14 07:36:10;;;;;;;0.90;0.90;;;5.50;99.90;;;;;;5020664;28;20124;-59
2022/01/14 07:38:36;;;;;;;0.00;0.00;;;5.60;99.90;;;;;;5021305;28;20076;-59
2022/01/14 07:41:02;;;;;;;0.00;0.00;;;5.60;99.90;;;;;;5022111;28;20053;-59
2022/01/14 07:43:28;;;;;;;0.00;0.00;;;5.60;99.90;;;;;;5022084;28;20053;-60
2022/01/14 07:45:54;;;;;;;0.00;0.00;;;5.60;99.90;;;;;;5021675;28;20103;-60
2022/01/14 07:48:19;;;;;;;0.00;0.00;;;5.60;99.90;;;;;;5020554;28;20154;-60
2022/01/14 07:50:45;;;;;;;0.00;0.00;;;6.40;99.90;;;;;;5020609;28;20377;-59
2022/01/14 07:53:11;;;;;;;0.00;0.00;;;5.60;99.90;;;;;;5021271;28;20095;-60
2022/01/14 07:55:36;;;;;;;0.00;0.00;;;5.60;99.90;;;;;;5028741;28;20121;-60
2022/01/14 07:58:03;;;;;;;0.00;0.00;;;5.60;99.90;;;;;;5040375;28;20041;-59
2022/01/14 08:00:29;;;;;;;0.00;0.00;;;5.60;99.90;;;;;;5040869;28;20456;-60
2022/01/14 08:02:56;;;;;;;0.00;0.00;;;5.70;99.90;;;;;;5040604;28;20037;-59
2022/01/14 08:05:22;;;;;;;0.17;0.10;;;5.70;99.90;;;;;;5039787;28;20402;-59
2022/01/14 08:07:51;;;;;;;0.00;0.00;;;5.70;99.90;;;;;;5039811;28;20114;-59
2022/01/14 08:10:17;;;;;;;0.00;0.00;;;5.70;99.90;;;;;;5040954;28;20060;-60
2022/01/14 08:12:43;;;;;;;0.00;0.00;;;5.80;99.90;;;;;;5041057;28;20087;-60
2022/01/14 08:15:11;;;;;;;0.00;0.00;;;6.20;99.90;;;;;;5039880;28;20044;-60
2022/01/14 08:17:37;;;;;;;0.20;0.20;;;5.80;99.90;;;;;;5040252;28;20037;-60
2022/01/14 08:20:04;;;;;;;0.00;0.00;;;5.80;99.90;;;;;;5037730;28;20052;-59
2022/01/14 08:22:31;;;;;;;0.00;0.00;;;5.80;99.90;;;;;;5030306;28;20182;-59
2022/01/14 08:24:57;;;;;;;0.00;0.00;;;5.80;99.90;;;;;;5059770;28;20052;-60
2022/01/14 08:27:23;;;;;;;0.00;0.00;;;5.80;99.90;;;;;;5054821;28;20041;-59
2022/01/14 08:29:50;;;;;;;0.00;0.00;;;5.80;99.90;;;;;;5029394;28;20045;-59
2022/01/14 08:32:16;;;;;;;0.10;0.10;;;5.80;99.90;;;;;;5020380;28;20130;-59
2022/01/14 08:34:42;;;;;;;0.00;0.00;;;5.90;99.90;;;;;;5019041;28;20050;-60
2022/01/14 08:37:07;;;;;;;0.00;0.00;;;6.20;99.90;;;;;;5020393;28;20041;-60
2022/01/14 08:39:33;;;;;;;0.00;0.00;;;5.80;99.90;;;;;;5020600;28;20034;-60
2022/01/14 08:41:59;;;;;;;0.00;0.00;;;5.80;99.90;;;;;;5020795;28;20577;-59
2022/01/14 08:44:26;;;;;;;0.00;0.00;;;5.80;99.90;;;;;;5019455;28;20037;-61
2022/01/14 08:46:52;;;;;;;0.32;0.17;;;5.80;99.90;;;;;;5020189;28;20068;-61
2022/01/14 08:49:18;;;;;;;0.00;0.00;;;5.60;99.90;;;;;;5015828;28;20133;-60
2022/01/14 08:51:44;;;;;;;0.00;0.00;;;5.80;99.90;;;;;;5040295;28;20065;-60
2022/01/14 08:54:10;;;;;;;0.00;0.00;;;5.80;99.90;;;;;;5039118;28;20146;-60
2022/01/14 08:56:36;;;;;;;0.00;0.00;;;5.80;99.90;;;;;;5039839;28;20060;-60
2022/01/14 08:59:03;;;;;;;0.00;0.00;;;6.00;99.90;;;;;;5039648;28;20136;-59
2022/01/14 09:01:29;;;;;;;0.17;0.17;;;5.90;99.90;;;;;;5038917;28;20139;-59
2022/01/14 09:03:55;;;;;;;0.00;0.00;;;6.20;99.90;;;;;;5038015;28;20060;-60
2022/01/14 09:06:20;;;;;;;0.00;0.00;;;5.90;99.90;;;;;;5039274;28;20084;-60
2022/01/14 09:08:46;;;;;;;0.00;0.00;;;5.90;99.90;;;;;;5039940;28;20190;-59
2022/01/14 09:11:12;;;;;;;0.30;0.05;;;6.00;99.90;;;;;;5021452;28;20045;-59
2022/01/14 09:13:37;;;;;;;0.00;0.00;;;6.00;99.90;;;;;;5039132;28;20127;-59
2022/01/14 09:16:03;;;;;;;0.00;0.00;;;6.00;99.90;;;;;;5039072;28;20052;-59
2022/01/14 09:18:29;;;;;;;0.00;0.00;;;6.10;99.90;;;;;;5021766;28;20106;-60
2022/01/14 09:20:58;;;;;;;0.00;0.00;;;6.10;99.90;;;;;;5021319;28;20053;-60
2022/01/14 09:23:25;;;;;;;0.40;0.30;;;6.10;99.90;;;;;;5021030;28;20140;-59
2022/01/14 09:25:54;;;;;;;0.00;0.00;;;6.20;99.90;;;;;;5021254;28;20437;-60
2022/01/14 09:28:20;;;;;;;0.10;0.08;;;6.20;99.90;;;;;;5014842;28;20056;-60
2022/01/14 09:30:46;;;;;;;0.00;0.00;;;6.20;99.90;;;;;;5024580;28;20484;-60
2022/01/14 09:33:12;;;;;;;0.00;0.00;;;6.30;99.90;;;;;;5018119;28;20049;-60
2022/01/14 09:35:40;;;;;;;0.00;0.00;;;6.30;99.90;;;;;;5001129;28;20057;-60
2022/01/14 09:38:06;;;;;;;0.00;0.00;;;6.30;99.90;;;;;;5019561;28;20049;-60
2022/01/14 09:40:32;;;;;;;0.00;0.00;;;6.30;99.90;;;;;;5019592;28;20045;-59
2022/01/14 09:43:01;;;;;;;0.00;0.00;;;6.40;99.90;;;;;;5032138;28;20833;-59
2022/01/14 09:45:28;;;;;;;0.00;0.00;;;6.40;99.90;;;;;;5030996;28;20415;-59
2022/01/14 09:47:54;;;;;;;0.00;0.00;;;6.40;99.90;;;;;;5038901;28;20719;-59
2022/01/14 09:50:21;;;;;;;0.00;0.00;;;6.50;99.90;;;;;;5038090;28;20094;-59
2022/01/14 09:52:50;;;;;;;0.00;0.00;;;6.50;99.90;;;;;;5039146;28;20045;-59
2022/01/14 09:55:16;;;;;;;0.00;0.00;;;6.50;99.90;;;;;;5038919;28;20053;-59
2022/01/14 09:57:42;;;;;;;0.00;0.00;;;7.80;99.90;;;;;;5038819;28;20045;-60
2022/01/14 10:00:08;;;;;;;0.00;0.00;;;6.50;99.90;;;;;;5038163;28;20060;-59
2022/01/14 10:02:37;;;;;;;0.00;0.00;;;6.50;99.90;;;;;;5038712;28;20939;-59
2022/01/14 10:05:05;;;;;;;0.00;0.00;;;6.50;99.90;;;;;;5037951;28;20048;-59
2022/01/14 10:07:32;;;;;;;0.00;0.00;;;6.50;99.90;;;;;;5039513;28;20442;-58
2022/01/14 10:10:00;;;;;;;0.00;0.00;;;6.60;99.90;;;;;;5038261;28;20059;-58
2022/01/14 10:12:30;;;;;;;0.00;0.00;;;6.60;99.90;;;;;;5037295;28;20049;-58
2022/01/14 10:15:00;;;;;;;0.00;0.00;;;6.60;99.90;;;;;;5038770;28;20046;-58
2022/01/14 10:17:43;;;;;;;0.00;0.00;;;7.10;99.90;;;;;;5038691;28;20051;-58
2022/01/14 10:20:14;;;;;;;0.00;0.00;;;6.90;99.90;;;;;;5037823;28;20052;-58
2022/01/14 10:22:48;;;;;;;0.00;0.00;;;6.70;99.90;;;;;;5037335;28;20053;-59
2022/01/14 10:25:19;;;;;;;0.00;0.00;;;8.00;99.90;;;;;;5036641;28;20049;-58
2022/01/14 10:27:48;;;;;;;0.00;0.00;;;6.60;99.90;;;;;;5033712;28;20037;-59
2022/01/14 10:30:24;;;;;;;0.00;0.00;;;6.70;99.90;;;;;;5027392;28;20045;-58
2022/01/14 10:32:54;;;;;;;0.00;0.00;;;6.60;99.90;;;;;;5017982;28;20049;-58
2022/01/14 10:35:22;;;;;;;0.00;0.00;;;6.60;99.90;;;;;;5016400;28;20053;-67
2022/01/14 10:37:48;;;;;;;0.00;0.00;;;6.90;99.90;;;;;;5030158;28;20041;-58
2022/01/14 10:40:20;;;;;;;0.13;0.13;;;6.80;99.90;;;;;;5038458;28;20403;-59
2022/01/14 10:42:50;;;;;;;0.00;0.00;;;6.80;99.90;;;;;;5039229;28;20075;-58
2022/01/14 10:45:27;;;;;;;0.00;0.00;;;6.80;99.90;;;;;;5042661;28;20037;-59
2022/01/14 10:48:09;;;;;;;0.00;0.00;;;6.80;99.90;;;;;;5041718;28;20741;-58
2022/01/14 10:50:39;;;;;;;0.00;0.00;;;6.80;99.90;;;;;;5040409;28;20044;-59
2022/01/14 10:53:21;;;;;;;0.00;0.00;;;6.70;99.90;;;;;;5041111;28;20047;-59
2022/01/14 10:55:52;;;;;;;0.00;0.00;;;6.80;99.90;;;;;;5040816;28;20051;-59
2022/01/14 10:58:27;;;;;;;0.00;0.00;;;6.80;99.90;;;;;;5042439;28;20053;-59
2022/01/14 11:01:00;;;;;;;0.00;0.00;;;6.80;99.90;;;;;;5041364;28;20052;-59
2022/01/14 11:03:38;;;;;;;0.00;0.00;;;6.70;99.90;;;;;;5042018;28;20433;-58
2022/01/14 11:06:22;;;;;;;0.00;0.00;;;6.80;99.90;;;;;;5041789;28;20049;-59
2022/01/14 11:08:59;;;;;;;0.00;0.00;;;6.80;99.90;;;;;;5023725;28;20057;-59
2022/01/14 11:11:27;;;;;;;0.00;0.00;;;6.80;99.90;;;;;;5042483;28;20474;-58
2022/01/14 11:13:52;;;;;;;0.00;0.00;;;6.80;99.90;;;;;;5040680;28;20527;-59
2022/01/14 11:16:18;;;;;;;0.00;0.00;;;6.80;99.90;;;;;;5035799;28;20052;-59
2022/01/14 11:18:46;;;;;;;0.00;0.00;;;6.80;99.90;;;;;;5031143;28;20048;-60
2022/01/14 11:23:56;;;;;;;0.00;0.00;;;6.80;99.90;;;;;;5039151;28;20719;-59
2022/01/14 11:26:27;;;;;;;0.00;0.00;;;6.80;99.90;;;;;;5041751;28;20060;-59
2022/01/14 11:28:53;;;;;;;0.00;0.00;;;6.80;99.90;;;;;;5022726;28;20069;-59
2022/01/14 11:31:26;;;;;;;0.00;0.00;;;6.80;99.90;;;;;;5022313;28;20129;-57
2022/01/14 11:33:53;;;;;;;0.00;0.00;;;6.80;99.90;;;;;;5020234;28;20045;-59
2022/01/14 11:36:19;;;;;;;0.00;0.00;;;6.90;99.90;;;;;;5003534;28;20049;-60
2022/01/14 11:38:46;;;;;;;0.00;0.00;;;6.90;99.90;;;;;;5020438;28;20045;-60
2022/01/14 11:41:17;;;;;;;0.00;0.00;;;6.90;99.90;;;;;;5021341;28;20126;-59
2022/01/14 11:43:46;;;;;;;0.00;0.00;;;6.70;99.90;;;;;;5021196;28;20042;-60
2022/01/14 11:46:36;;;;;;;0.00;0.00;;;7.20;99.90;;;;;;5020943;28;20049;-61
2022/01/14 11:49:22;;;;;;;0.00;0.00;;;6.90;99.90;;;;;;5003328;28;20049;-59
2022/01/14 11:52:08;;;;;;;0.00;0.00;;;6.90;99.90;;;;;;5020298;28;20053;-59
2022/01/14 11:54:42;;;;;;;0.00;0.00;;;6.90;99.90;;;;;;5020774;28;20056;-59
2022/01/14 11:57:08;;;;;;;0.00;0.00;;;7.00;99.90;;;;;;5020294;28;20057;-60
2022/01/14 11:59:34;;;;;;;0.00;0.00;;;6.90;99.90;;;;;;5021159;28;20072;-59
2022/01/14 12:02:00;;;;;;;0.00;0.00;;;7.00;99.90;;;;;;5021252;28;20045;-59
2022/01/14 12:05:04;;;;;;;0.00;0.00;;;7.00;99.90;;;;;;5018191;28;20060;-60
2022/01/14 12:07:30;;;;;;;0.00;0.00;;;7.00;99.90;;;;;;5040617;28;20470;-59
2022/01/14 12:10:03;;;;;;;0.00;0.00;;;6.90;99.90;;;;;;5040804;28;20071;-59
2022/01/14 12:12:31;;;;;;;0.00;0.00;;;7.00;99.90;;;;;;5034849;28;20435;-58
2022/01/14 12:15:03;;;;;;;0.00;0.00;;;7.00;99.90;;;;;;5040772;28;20053;-59
2022/01/14 12:17:32;;;;;;;0.00;0.00;;;6.90;99.90;;;;;;5041212;28;20059;-59
2022/01/14 12:20:10;;;;;;;0.00;0.00;;;7.00;99.90;;;;;;5039505;28;20514;-59
2022/01/14 12:22:36;;;;;;;0.00;0.00;;;8.00;99.90;;;;;;5040817;28;20060;-59
2022/01/14 12:25:02;;;;;;;0.00;0.00;;;7.00;99.90;;;;;;5040636;28;20045;-59
2022/01/14 12:27:36;;;;;;;0.00;0.00;;;7.00;99.90;;;;;;5037843;28;20416;-59
2022/01/14 12:30:08;;;;;;;0.00;0.00;;;7.00;99.90;;;;;;5029105;28;20496;-59
2022/01/14 12:32:38;;;;;;;0.00;0.00;;;7.00;99.90;;;;;;5020017;28;20633;-58
2022/01/14 12:35:06;;;;;;;0.00;0.00;;;7.20;99.90;;;;;;5018599;28;20488;-60
2022/01/14 12:37:43;;;;;;;0.00;0.00;;;7.00;99.90;;;;;;5021044;28;20088;-61
2022/01/14 12:40:37;;;;;;;0.00;0.00;;;7.00;99.90;;;;;;5020174;28;20084;-59
2022/01/14 12:43:08;;;;;;;0.00;0.00;;;7.00;99.90;;;;;;5012031;28;20068;-60
2022/01/14 12:46:14;;;;;;;0.00;0.00;;;7.40;99.90;;;;;;5020100;28;20051;-61
2022/01/14 12:48:51;;;;;;;0.00;0.00;;;7.00;99.90;;;;;;5001222;28;20059;-60
2022/01/14 12:51:20;;;;;;;0.00;0.00;;;7.00;99.90;;;;;;5019429;28;20080;-59
2022/01/14 12:53:51;;;;;;;0.00;0.00;;;7.00;99.90;;;;;;5019935;28;20076;-59
2022/01/14 12:56:18;;;;;;;0.00;0.00;;;6.90;99.90;;;;;;5002261;28;20037;-59
2022/01/14 12:59:05;;;;;;;0.00;0.00;;;6.90;99.90;;;;;;5019385;28;20049;-59
2022/01/14 13:01:49;;;;;;;0.00;0.00;;;6.90;99.90;;;;;;5031082;28;20139;-59
2022/01/14 13:04:16;;;;;;;0.00;0.00;;;6.90;99.90;;;;;;5036853;28;20053;-60
2022/01/14 13:06:53;;;;;;;0.00;0.00;;;6.90;99.90;;;;;;5038189;28;20479;-60
2022/01/14 13:09:22;;;;;;;0.88;0.32;;;6.90;99.90;;;;;;5039355;28;20048;-59
2022/01/14 13:11:54;;;;;;;0.00;0.00;;;6.80;99.90;;;;;;5038154;28;20045;-57
2022/01/14 13:14:36;;;;;;;0.00;0.00;;;6.80;99.90;;;;;;5039226;28;20041;-60
2022/01/14 13:17:07;;;;;;;0.00;0.00;;;6.80;99.90;;;;;;5039750;28;20057;-57
2022/01/14 13:19:35;;;;;;;0.00;0.00;;;6.80;99.90;;;;;;5038134;28;20114;-58
2022/01/14 13:22:08;;;;;;;0.00;0.00;;;6.80;99.90;;;;;;5038051;28;20056;-58
2022/01/14 13:24:35;;;;;;;0.00;0.00;;;6.80;99.90;;;;;;5038881;28;20096;-58
2022/01/14 13:27:07;;;;;;;0.00;0.00;;;8.00;99.90;;;;;;5036577;28;20049;-57
2022/01/14 13:29:46;;;;;;;0.00;0.00;;;6.90;99.90;;;;;;5032625;28;20068;-58
2022/01/14 13:32:18;;;;;;;0.00;0.00;;;6.90;99.90;;;;;;5038813;28;20052;-58